Pagrindinis puslapis
METAR-TAF:

METAR-TAF

Oro uostai :

Kwethluk, Aliaska, Jungtinės Amerikos Valstijos

platuma: 60-47-25N, ilguma: 161-26-37W, Aukštis: 9 m

Dabartinis oras

Ataskaita buvo paskelbta 36 minutes, ne 03:56 UTC
Vėjas 9 kt iš Šiaurės Vakarų
Temperatūra 8°C
Drėgmė 61%
Slėgis 1000 hPa
Matomumas: 16.1 km
Išsisklaidę debesys ne aukštis 4400 ft

METAR: PFKW 210356Z AUTO 32009KT 10SM SCT044 08/01 A2954 RMK AO2 SLP002 T00830006

Laikas: 20:32 (04:32 UTC)


TAF: trūkstamas

Orai ataskaitas ir orų prognozės (METAR, TAF).

turimą stotys yra geltonos ir raudonos taškus žemėlapyje.

Perkelti pele per norėdami pamatyti stoties vardą.

Tada spustelėkite, norėdami matyti oro stebėjimo ir prognozės.

Norėdami pakeisti žemėlapį: spustelėkite ant žalios mygtukų su juodo kryžiaus žemyn,; žalią mygtuką su brūkšneliu, jei norite nutolinti; arba žalių rodyklių gretimoms žemėlapius.


METAR-TAF: